• Join FlightAware (Why Join?)
  • Login
  • US Flag 
07:24PM EDT


 

Airport Tracker/Info


-or-


 

Live Flight TrackerFlight Track Log ✈ UAL5832 ✈ 25-Apr-2013 ✈ KABE - KORD

Flight Track Log - Related Links

Times and Time Zones

All times are in EDT time to prevent confusion due to time zone crossing. See the UAL5832 flight status page for this flight to view local times or setup timezone preferences in your user account.

Time Position Orientation Groundspeed Altitude Reporting Facility
EDT Latitude Longitude Course Direction KTS MPH feet Rate Location/Type
06:01PM 40.6100 -75.5167 264° West 193 222 3,300  Level New York Center
06:02PM 40.6092 -75.5906 269° West 216 249 4,700 1,920 Climbing New York Center
06:03PM 40.6053 -75.6803 267° West 246 283 7,200 2,760 Climbing New York Center
06:04PM 40.5992 -75.7811 265° West 252 290 10,300 1,920 Climbing New York Center
06:05PM 40.5950 -75.8764 267° West 257 296 11,200 900 Climbing New York Center
06:06PM 40.5883 -75.9797 265° West 293 337 12,100 1,320 Climbing New York Center
06:07PM 40.5888 -76.1132 264° West  Level FlightAware Approximate
06:08PM 40.5851 -76.1116 268° West  Level FlightAware Approximate
06:08PM 40.5753 -76.2247 268° West 324 373 15,200  Level New York Center
06:09PM 40.5681 -76.3364 265° West 319 367 17,200 1,800 Climbing New York Center
06:10PM 40.5636 -76.4289 266° West 303 349 18,900 1,620 Climbing New York Center
06:11PM 40.5558 -76.5483 265° West 298 343 20,500 1,560 Climbing New York Center
06:12PM 40.5547 -76.6547 269° West 293 337 22,000 1,500 Climbing New York Center
06:13PM 40.5658 -76.7625 278° West 293 337 23,500 1,500 Climbing New York Center
06:14PM 40.5750 -76.8669 277° West 293 337 25,100 1,680 Climbing New York Center
06:15PM 40.5844 -76.9689 277° West 293 337 26,900 1,560 Climbing New York Center
06:16PM 40.5939 -77.0683 277° West 288 331 28,300 1,080 Climbing New York Center
06:17PM 40.6031 -77.1675 277° West 283 326 29,100 600 Climbing New York Center
06:18PM 40.6117 -77.2750 276° West 283 326 29,600 480 Climbing New York Center
06:19PM 40.6206 -77.3772 277° West 297 342 30,100 660 Climbing New York Center
06:20PM 40.6308 -77.4931 277° West 308 354 31,000 960 Climbing New York Center
06:23PM 40.6511 -77.7533 276° West 326 375 33,200 900 Climbing Cleveland Center
06:24PM 40.6669 -77.8867 279° West 333 383 34,000 360 Climbing Cleveland Center
06:25PM 40.6844 -78.0092 281° West 338 389 34,000  Level Cleveland Center
06:26PM 40.7017 -78.1372 280° West 355 409 34,000  Level Cleveland Center
06:27PM 40.7211 -78.2653 281° West 355 409 34,000  Level Cleveland Center
06:28PM 40.7361 -78.3853 279° West 350 403 34,000  Level Cleveland Center
06:29PM 40.7506 -78.4919 280° West 345 397 34,000  Level Cleveland Center
06:30PM 40.7672 -78.6092 281° West 339 390 34,000 300 Level Cleveland Center
06:31PM 40.7817 -78.7294 279° West 333 383 34,600 720 Climbing Cleveland Center
06:32PM 40.7981 -78.8442 281° West 333 383 35,500 660 Climbing Cleveland Center
06:33PM 40.8164 -78.9589 282° West 333 383 36,000 240 Climbing Cleveland Center
06:34PM 40.8308 -79.0819 279° West 333 383 36,000  Level Cleveland Center
06:35PM 40.8469 -79.2081 280° West 339 390 36,000  Level Cleveland Center
06:36PM 40.8631 -79.3339 280° West 347 399 36,000  Level Cleveland Center
06:37PM 40.8933 -79.4569 288° West 354 407 36,000  Level Cleveland Center
06:38PM 40.9486 -79.5714 303° West 354 407 36,000  Level Cleveland Center
06:39PM 40.9997 -79.6917 299° West 366 421 36,000  Level Cleveland Center
06:40PM 41.0506 -79.8122 299° West 377 434 36,000  Level Cleveland Center
06:41PM 41.0597 -79.9442 275° West 360 414 36,000  Level Cleveland Center
06:42PM 41.0644 -80.0736 273° West 360 414 36,000  Level Cleveland Center
06:43PM 41.0733 -80.2003 275° West 354 407 36,000  Level Cleveland Center
06:44PM 41.0800 -80.3433 274° West 354 407 36,000  Level Cleveland Center
06:45PM 41.0864 -80.4758 274° West 354 407 36,000  Level Cleveland Center
06:46PM 41.0950 -80.6081 275° West 359 413 36,000  Level Cleveland Center
06:47PM 41.1011 -80.7431 273° West 364 419 36,000  Level Cleveland Center
06:48PM 41.1092 -80.8781 275° West 369 425 36,000  Level Cleveland Center
06:49PM 41.1169 -81.0158 274° West 369 425 36,000  Level Cleveland Center
06:50PM 41.1186 -81.1425 271° West 374 430 36,000  Level Cleveland Center
06:51PM 41.1261 -81.2806 274° West 379 436 36,000  Level Cleveland Center
06:52PM 41.1356 -81.4267 275° West 384 442 36,000  Level Cleveland Center
06:53PM 41.1428 -81.5675 274° West 384 442 36,000  Level Cleveland Center
06:54PM 41.1478 -81.7081 273° West 384 442 36,000  Level Cleveland Center
06:55PM 41.1544 -81.8461 274° West 384 442 36,000  Level Cleveland Center
06:56PM 41.1592 -81.9869 273° West 384 442 36,000  Level Cleveland Center
06:57PM 41.1636 -82.1331 272° West 384 442 36,000  Level Cleveland Center
06:58PM 41.1678 -82.2739 272° West 390 449 36,000  Level Cleveland Center
06:59PM 41.1722 -82.3983 273° West 384 442 36,000  Level Cleveland Center
07:00PM 41.1783 -82.5364 273° West 384 442 36,000  Level Cleveland Center
07:01PM 41.1819 -82.6744 272° West 384 442 36,000  Level Cleveland Center
07:02PM 41.1858 -82.8097 272° West 377 434 36,000  Level Cleveland Center
07:03PM 41.1914 -82.9478 273° West 377 434 36,000  Level Cleveland Center
07:04PM 41.1944 -83.0861 272° West 377 434 36,000  Level Cleveland Center
07:05PM 41.1978 -83.2186 272° West 377 434 36,000  Level Cleveland Center
07:06PM 41.2028 -83.3650 273° West 366 421 36,000  Level Cleveland Center
07:07PM 41.2056 -83.5006 272° West 366 421 36,000  Level Cleveland Center
07:08PM 41.2083 -83.6386 272° West 366 421 36,000  Level Cleveland Center
07:09PM 41.2150 -83.7686 274° West 366 421 36,000  Level Cleveland Center
07:10PM 41.2200 -83.8906 273° West 366 421 36,000 -540 Level Cleveland Center
07:12PM 41.2258 -84.1772 272° West 354 407 34,300 -660 Descending Chicago Center
07:13PM 41.2281 -84.3089 271° West 355 409 34,000 -180 Descending Chicago Center
07:14PM 41.2319 -84.4661 272° West 356 410 34,000  Level Chicago Center
07:15PM 41.2333 -84.5956 271° West 352 405 34,000  Level Chicago Center
07:16PM 41.2381 -84.7267 273° West 354 407 34,000  Level Chicago Center
07:17PM 41.2419 -84.8578 272° West 355 409 34,000 -420 Level Chicago Center
07:18PM 41.2461 -84.9892 272° West 356 410 33,200 -1,020 Descending Chicago Center
07:19PM 41.2497 -85.1183 272° West 352 405 31,900 -1,440 Descending Chicago Center
07:20PM 41.2533 -85.2500 272° West 354 407 30,300 -1,680 Descending Chicago Center
07:21PM 41.2575 -85.4103 272° West 358 412 28,500 -1,620 Descending Chicago Center
07:22PM 41.2614 -85.5442 272° West 361 415 27,000 -1,500 Descending Chicago Center
07:23PM 41.2650 -85.6864 272° West 380 437 25,500 -1,020 Descending Chicago Center
07:24PM 41.2681 -85.8297 272° West 385 443 25,000 -300 Descending Chicago Center
07:25PM 41.2778 -85.9694 275° West 379 436 25,000 -360 Level Chicago Center
07:26PM 41.3142 -86.1014 290° West 376 433 24,300 -840 Descending Chicago Center
07:27PM 41.3569 -86.2308 294° West 381 438 23,300 -1,860 Descending Chicago Center
07:28PM 41.4036 -86.3772 293° West 358 412 20,500 -2,580 Descending Chicago Center
07:29PM 41.4517 -86.4853 301° West 341 392 18,000 -2,340 Descending Chicago Center
07:30PM 41.5178 -86.5828 312° West 351 404 15,700 -2,280 Descending Chicago Center
07:31PM 41.5772 -86.6719 312° West 330 380 13,400 -1,800 Descending Chicago Center
07:32PM 41.6389 -86.7664 311° West 318 366 12,000 -780 Descending Chicago Center
07:34PM 41.7228 -86.8028 342° North 327 376 11,900  Descending Chicago Center
07:35PM 41.8117 -86.8169 353° North 327 376 12,000 -240 Climbing Chicago Center
07:36PM 41.8950 -86.8903 327° Northwest 321 369 11,500 -780 Descending Chicago Center
07:37PM 41.9303 -86.9903 295° West 301 346 10,500 -780 Descending Chicago Center
07:38PM 41.9675 -87.0906 297° West 302 348 9,900 -720 Descending Chicago Center
07:39PM 41.9878 -87.1753 288° West 256 295 9,000 -1,080 Descending Chicago Center
07:40PM 41.9811 -87.2881 265° West 255 293 7,700 -840 Descending Chicago Center
07:41PM 41.9842 -87.3819 273° West 254 292 7,300 -480 Descending Chicago Center
07:41PM 41.9833 -87.4333 269° West 255 293 7,000 -660 Descending Chicago TRACON
07:42PM 41.9833 -87.5167 270° West 245 282 6,300 -1,140 Descending Chicago TRACON
07:43PM 41.9833 -87.6167 270° West 248 285 4,800 -1,440 Descending Chicago TRACON
07:44PM 41.9833 -87.7167 270° West 208 239 3,300 -1,200 Descending Chicago TRACON
07:45PM 41.9833 -87.7667 270° West 174 200 2,500 -840 Descending Chicago TRACON
07:46PM 41.9833 -87.8167 270° West 122 140 1,700 -780 Descending Chicago TRACON
07:47PM 41.9833 -87.8667 270° West 128 147 1,000 -780 Descending Chicago TRACON
07:49PM 41.9667 -87.9000 270° West  Level FlightAware Approximate